sensor_id;sensor_type;location;lat;lon;timestamp;temperature;humidity
21559;DHT22;10940;48.890;8.240;2023-09-19T00:02:02;17.60;99.90
21559;DHT22;10940;48.890;8.240;2023-09-19T00:04:32;17.70;99.90
21559;DHT22;10940;48.890;8.240;2023-09-19T00:06:58;17.70;99.90
21559;DHT22;10940;48.890;8.240;2023-09-19T00:09:24;17.70;99.90
21559;DHT22;10940;48.890;8.240;2023-09-19T00:11:53;17.60;99.90
21559;DHT22;10940;48.890;8.240;2023-09-19T00:14:18;17.70;99.90
21559;DHT22;10940;48.890;8.240;2023-09-19T00:16:44;17.70;99.90
21559;DHT22;10940;48.890;8.240;2023-09-19T00:19:11;17.70;99.90
21559;DHT22;10940;48.890;8.240;2023-09-19T00:21:38;17.70;99.90
21559;DHT22;10940;48.890;8.240;2023-09-19T00:24:04;17.70;99.90
21559;DHT22;10940;48.890;8.240;2023-09-19T00:26:32;17.70;99.90
21559;DHT22;10940;48.890;8.240;2023-09-19T00:28:58;17.70;99.90
21559;DHT22;10940;48.890;8.240;2023-09-19T00:31:30;17.70;99.90
21559;DHT22;10940;48.890;8.240;2023-09-19T00:33:56;17.70;99.90
21559;DHT22;10940;48.890;8.240;2023-09-19T00:36:25;17.70;99.90
21559;DHT22;10940;48.890;8.240;2023-09-19T00:38:51;17.70;99.90
21559;DHT22;10940;48.890;8.240;2023-09-19T00:41:16;17.70;99.90
21559;DHT22;10940;48.890;8.240;2023-09-19T00:43:42;17.70;99.90
21559;DHT22;10940;48.890;8.240;2023-09-19T00:46:08;17.80;99.90
21559;DHT22;10940;48.890;8.240;2023-09-19T00:48:40;17.70;99.90
21559;DHT22;10940;48.890;8.240;2023-09-19T00:51:06;17.80;99.90
21559;DHT22;10940;48.890;8.240;2023-09-19T00:53:32;17.80;99.90
21559;DHT22;10940;48.890;8.240;2023-09-19T00:55:59;17.80;99.90
21559;DHT22;10940;48.890;8.240;2023-09-19T00:58:25;17.70;99.90
21559;DHT22;10940;48.890;8.240;2023-09-19T01:00:51;17.80;99.90
21559;DHT22;10940;48.890;8.240;2023-09-19T01:03:18;17.80;99.90
21559;DHT22;10940;48.890;8.240;2023-09-19T01:05:44;17.80;99.90
21559;DHT22;10940;48.890;8.240;2023-09-19T01:08:10;17.80;99.90
21559;DHT22;10940;48.890;8.240;2023-09-19T01:10:51;17.80;99.90
21559;DHT22;10940;48.890;8.240;2023-09-19T01:21:57;17.80;99.90
21559;DHT22;10940;48.890;8.240;2023-09-19T01:27:53;17.80;99.90
21559;DHT22;10940;48.890;8.240;2023-09-19T01:30:17;17.70;99.90
21559;DHT22;10940;48.890;8.240;2023-09-19T01:32:49;17.80;99.90
21559;DHT22;10940;48.890;8.240;2023-09-19T01:35:17;17.70;99.90
21559;DHT22;10940;48.890;8.240;2023-09-19T01:37:44;17.70;99.90
21559;DHT22;10940;48.890;8.240;2023-09-19T01:40:14;17.70;99.90
21559;DHT22;10940;48.890;8.240;2023-09-19T01:43:08;17.70;99.90
21559;DHT22;10940;48.890;8.240;2023-09-19T01:51:10;17.70;99.90
21559;DHT22;10940;48.890;8.240;2023-09-19T01:56:16;17.70;99.90
21559;DHT22;10940;48.890;8.240;2023-09-19T01:58:57;17.70;99.90
21559;DHT22;10940;48.890;8.240;2023-09-19T02:01:25;17.70;99.90
21559;DHT22;10940;48.890;8.240;2023-09-19T02:03:52;17.70;99.90
21559;DHT22;10940;48.890;8.240;2023-09-19T02:06:18;17.70;99.90
21559;DHT22;10940;48.890;8.240;2023-09-19T02:08:45;17.80;99.90
21559;DHT22;10940;48.890;8.240;2023-09-19T02:11:11;17.80;99.90
21559;DHT22;10940;48.890;8.240;2023-09-19T02:13:38;17.80;99.90
21559;DHT22;10940;48.890;8.240;2023-09-19T02:16:04;17.80;99.90
21559;DHT22;10940;48.890;8.240;2023-09-19T02:18:30;17.80;99.90
21559;DHT22;10940;48.890;8.240;2023-09-19T02:20:56;17.80;99.90
21559;DHT22;10940;48.890;8.240;2023-09-19T02:23:24;17.80;99.90
21559;DHT22;10940;48.890;8.240;2023-09-19T02:25:54;17.80;99.90
21559;DHT22;10940;48.890;8.240;2023-09-19T02:28:20;17.70;99.90
21559;DHT22;10940;48.890;8.240;2023-09-19T02:30:49;17.80;99.90
21559;DHT22;10940;48.890;8.240;2023-09-19T02:33:15;17.80;99.90
21559;DHT22;10940;48.890;8.240;2023-09-19T02:35:42;17.80;99.90
21559;DHT22;10940;48.890;8.240;2023-09-19T02:38:08;17.80;99.90
21559;DHT22;10940;48.890;8.240;2023-09-19T02:40:37;17.70;99.90
21559;DHT22;10940;48.890;8.240;2023-09-19T02:43:03;17.70;99.90
21559;DHT22;10940;48.890;8.240;2023-09-19T02:45:30;17.70;99.90
21559;DHT22;10940;48.890;8.240;2023-09-19T02:47:56;17.70;99.90
21559;DHT22;10940;48.890;8.240;2023-09-19T02:50:22;17.70;99.90
21559;DHT22;10940;48.890;8.240;2023-09-19T02:52:48;17.70;99.90
21559;DHT22;10940;48.890;8.240;2023-09-19T02:55:16;17.70;99.90
21559;DHT22;10940;48.890;8.240;2023-09-19T02:57:54;17.70;99.90
21559;DHT22;10940;48.890;8.240;2023-09-19T03:00:21;17.60;99.90
21559;DHT22;10940;48.890;8.240;2023-09-19T03:02:48;17.60;99.90
21559;DHT22;10940;48.890;8.240;2023-09-19T03:05:14;17.50;99.90
21559;DHT22;10940;48.890;8.240;2023-09-19T03:07:39;17.40;99.90
21559;DHT22;10940;48.890;8.240;2023-09-19T03:10:06;17.40;99.90
21559;DHT22;10940;48.890;8.240;2023-09-19T03:12:33;17.40;99.90
21559;DHT22;10940;48.890;8.240;2023-09-19T03:14:59;17.40;99.90
21559;DHT22;10940;48.890;8.240;2023-09-19T03:17:25;17.20;99.90
21559;DHT22;10940;48.890;8.240;2023-09-19T03:19:51;17.30;99.90
21559;DHT22;10940;48.890;8.240;2023-09-19T03:22:16;17.30;99.90
21559;DHT22;10940;48.890;8.240;2023-09-19T03:24:42;17.30;99.90
21559;DHT22;10940;48.890;8.240;2023-09-19T03:27:12;17.30;99.90
21559;DHT22;10940;48.890;8.240;2023-09-19T03:29:44;17.30;99.90
21559;DHT22;10940;48.890;8.240;2023-09-19T03:32:10;17.30;99.90
21559;DHT22;10940;48.890;8.240;2023-09-19T03:34:37;17.30;99.90
21559;DHT22;10940;48.890;8.240;2023-09-19T03:37:07;17.30;99.90
21559;DHT22;10940;48.890;8.240;2023-09-19T03:39:33;17.30;99.90
21559;DHT22;10940;48.890;8.240;2023-09-19T03:41:58;17.30;99.90
21559;DHT22;10940;48.890;8.240;2023-09-19T03:44:24;17.30;99.90
21559;DHT22;10940;48.890;8.240;2023-09-19T03:46:49;17.30;99.90
21559;DHT22;10940;48.890;8.240;2023-09-19T03:49:15;17.30;99.90
21559;DHT22;10940;48.890;8.240;2023-09-19T03:51:42;17.20;99.90
21559;DHT22;10940;48.890;8.240;2023-09-19T03:54:08;17.20;99.90
21559;DHT22;10940;48.890;8.240;2023-09-19T03:56:33;17.20;99.90
21559;DHT22;10940;48.890;8.240;2023-09-19T03:58:59;17.20;99.90
21559;DHT22;10940;48.890;8.240;2023-09-19T04:01:25;17.20;99.90
21559;DHT22;10940;48.890;8.240;2023-09-19T04:03:53;17.30;99.90
21559;DHT22;10940;48.890;8.240;2023-09-19T04:06:19;17.20;99.90
21559;DHT22;10940;48.890;8.240;2023-09-19T04:08:44;17.10;99.90
21559;DHT22;10940;48.890;8.240;2023-09-19T04:11:11;17.10;99.90
21559;DHT22;10940;48.890;8.240;2023-09-19T04:13:37;17.10;99.90
21559;DHT22;10940;48.890;8.240;2023-09-19T04:16:03;17.20;99.90
21559;DHT22;10940;48.890;8.240;2023-09-19T04:18:35;17.10;99.90
21559;DHT22;10940;48.890;8.240;2023-09-19T04:21:03;17.10;99.90
21559;DHT22;10940;48.890;8.240;2023-09-19T04:23:31;17.20;99.90
21559;DHT22;10940;48.890;8.240;2023-09-19T04:25:57;17.10;99.90
21559;DHT22;10940;48.890;8.240;2023-09-19T04:28:23;17.10;99.90
21559;DHT22;10940;48.890;8.240;2023-09-19T04:30:50;17.10;99.90
21559;DHT22;10940;48.890;8.240;2023-09-19T04:33:15;17.00;99.90
21559;DHT22;10940;48.890;8.240;2023-09-19T04:35:41;17.00;99.90
21559;DHT22;10940;48.890;8.240;2023-09-19T04:38:08;17.00;99.90
21559;DHT22;10940;48.890;8.240;2023-09-19T04:40:34;16.90;99.90
21559;DHT22;10940;48.890;8.240;2023-09-19T04:43:00;16.90;99.90
21559;DHT22;10940;48.890;8.240;2023-09-19T04:45:26;16.90;99.90
21559;DHT22;10940;48.890;8.240;2023-09-19T04:47:52;16.90;99.90
21559;DHT22;10940;48.890;8.240;2023-09-19T04:50:18;16.90;99.90
21559;DHT22;10940;48.890;8.240;2023-09-19T04:52:49;16.90;99.90
21559;DHT22;10940;48.890;8.240;2023-09-19T04:55:16;16.80;99.90
21559;DHT22;10940;48.890;8.240;2023-09-19T04:57:52;16.80;99.90
21559;DHT22;10940;48.890;8.240;2023-09-19T05:00:20;16.80;99.90
21559;DHT22;10940;48.890;8.240;2023-09-19T05:02:49;16.80;99.90
21559;DHT22;10940;48.890;8.240;2023-09-19T05:05:16;16.80;99.90
21559;DHT22;10940;48.890;8.240;2023-09-19T05:07:42;16.80;99.90
21559;DHT22;10940;48.890;8.240;2023-09-19T05:10:08;16.80;99.90
21559;DHT22;10940;48.890;8.240;2023-09-19T05:12:35;16.70;99.90
21559;DHT22;10940;48.890;8.240;2023-09-19T05:15:04;16.70;99.90
21559;DHT22;10940;48.890;8.240;2023-09-19T05:17:32;16.70;99.90
21559;DHT22;10940;48.890;8.240;2023-09-19T05:19:58;16.60;99.90
21559;DHT22;10940;48.890;8.240;2023-09-19T05:22:26;16.50;99.90
21559;DHT22;10940;48.890;8.240;2023-09-19T05:24:52;16.60;99.90
21559;DHT22;10940;48.890;8.240;2023-09-19T05:27:19;16.60;99.90
21559;DHT22;10940;48.890;8.240;2023-09-19T05:29:46;16.60;99.90
21559;DHT22;10940;48.890;8.240;2023-09-19T05:32:13;16.60;99.90
21559;DHT22;10940;48.890;8.240;2023-09-19T05:34:38;16.60;99.90
21559;DHT22;10940;48.890;8.240;2023-09-19T05:37:04;16.60;99.90
21559;DHT22;10940;48.890;8.240;2023-09-19T05:39:33;16.60;99.90
21559;DHT22;10940;48.890;8.240;2023-09-19T05:41:58;16.50;99.90
21559;DHT22;10940;48.890;8.240;2023-09-19T05:44:25;16.60;99.90
21559;DHT22;10940;48.890;8.240;2023-09-19T05:46:51;16.60;99.90
21559;DHT22;10940;48.890;8.240;2023-09-19T05:49:17;16.60;99.90
21559;DHT22;10940;48.890;8.240;2023-09-19T05:51:43;16.60;99.90
21559;DHT22;10940;48.890;8.240;2023-09-19T05:54:09;16.60;99.90
21559;DHT22;10940;48.890;8.240;2023-09-19T05:56:36;16.60;99.90
21559;DHT22;10940;48.890;8.240;2023-09-19T05:59:02;16.60;99.90
21559;DHT22;10940;48.890;8.240;2023-09-19T06:01:29;16.60;99.90
21559;DHT22;10940;48.890;8.240;2023-09-19T06:03:57;16.50;99.90
21559;DHT22;10940;48.890;8.240;2023-09-19T06:06:22;16.40;99.90
21559;DHT22;10940;48.890;8.240;2023-09-19T06:08:49;16.50;99.90
21559;DHT22;10940;48.890;8.240;2023-09-19T06:11:15;16.50;99.90
21559;DHT22;10940;48.890;8.240;2023-09-19T06:13:41;16.40;99.90
21559;DHT22;10940;48.890;8.240;2023-09-19T06:16:07;16.50;99.90
21559;DHT22;10940;48.890;8.240;2023-09-19T06:18:32;16.40;99.90
21559;DHT22;10940;48.890;8.240;2023-09-19T06:21:01;16.40;99.90
21559;DHT22;10940;48.890;8.240;2023-09-19T06:23:33;16.50;99.90
21559;DHT22;10940;48.890;8.240;2023-09-19T06:25:59;16.40;99.90
21559;DHT22;10940;48.890;8.240;2023-09-19T06:28:25;16.40;99.90
21559;DHT22;10940;48.890;8.240;2023-09-19T06:30:53;16.40;99.90
21559;DHT22;10940;48.890;8.240;2023-09-19T06:33:19;16.40;99.90
21559;DHT22;10940;48.890;8.240;2023-09-19T06:35:47;16.40;99.90
21559;DHT22;10940;48.890;8.240;2023-09-19T06:38:13;16.50;99.90
21559;DHT22;10940;48.890;8.240;2023-09-19T06:40:40;16.50;99.90
21559;DHT22;10940;48.890;8.240;2023-09-19T06:43:10;16.50;99.90
21559;DHT22;10940;48.890;8.240;2023-09-19T06:45:35;16.50;99.90
21559;DHT22;10940;48.890;8.240;2023-09-19T06:48:01;16.40;99.90
21559;DHT22;10940;48.890;8.240;2023-09-19T06:50:28;16.50;99.90
21559;DHT22;10940;48.890;8.240;2023-09-19T06:52:56;16.50;99.90
21559;DHT22;10940;48.890;8.240;2023-09-19T06:55:25;16.50;99.90
21559;DHT22;10940;48.890;8.240;2023-09-19T06:57:53;16.60;99.90
21559;DHT22;10940;48.890;8.240;2023-09-19T07:00:22;16.60;99.90
21559;DHT22;10940;48.890;8.240;2023-09-19T07:03:09;16.60;99.90
21559;DHT22;10940;48.890;8.240;2023-09-19T07:05:37;16.70;99.90
21559;DHT22;10940;48.890;8.240;2023-09-19T07:08:05;16.80;99.90
21559;DHT22;10940;48.890;8.240;2023-09-19T07:10:32;16.80;99.90
21559;DHT22;10940;48.890;8.240;2023-09-19T07:13:05;16.90;99.90
21559;DHT22;10940;48.890;8.240;2023-09-19T07:15:34;16.90;99.90
21559;DHT22;10940;48.890;8.240;2023-09-19T07:18:07;17.00;99.90
21559;DHT22;10940;48.890;8.240;2023-09-19T07:20:36;17.10;99.90
21559;DHT22;10940;48.890;8.240;2023-09-19T07:23:02;17.20;99.90
21559;DHT22;10940;48.890;8.240;2023-09-19T07:25:28;17.30;99.90
21559;DHT22;10940;48.890;8.240;2023-09-19T07:27:58;17.40;99.90
21559;DHT22;10940;48.890;8.240;2023-09-19T07:30:26;17.50;99.90
21559;DHT22;10940;48.890;8.240;2023-09-19T07:32:52;17.60;99.90
21559;DHT22;10940;48.890;8.240;2023-09-19T07:35:18;17.60;99.90
21559;DHT22;10940;48.890;8.240;2023-09-19T07:37:48;17.60;99.90
21559;DHT22;10940;48.890;8.240;2023-09-19T07:40:17;17.70;99.90
21559;DHT22;10940;48.890;8.240;2023-09-19T07:42:43;17.80;99.90
21559;DHT22;10940;48.890;8.240;2023-09-19T07:45:11;17.90;99.90
21559;DHT22;10940;48.890;8.240;2023-09-19T07:47:44;17.90;99.90
21559;DHT22;10940;48.890;8.240;2023-09-19T07:50:11;18.00;99.90
21559;DHT22;10940;48.890;8.240;2023-09-19T07:52:37;18.00;99.90
21559;DHT22;10940;48.890;8.240;2023-09-19T07:55:07;18.00;99.90
21559;DHT22;10940;48.890;8.240;2023-09-19T07:57:35;18.10;99.90
21559;DHT22;10940;48.890;8.240;2023-09-19T08:00:00;18.10;99.90
21559;DHT22;10940;48.890;8.240;2023-09-19T08:02:26;18.10;99.90
21559;DHT22;10940;48.890;8.240;2023-09-19T08:04:54;18.20;99.90
21559;DHT22;10940;48.890;8.240;2023-09-19T08:07:19;18.20;99.90
21559;DHT22;10940;48.890;8.240;2023-09-19T08:09:45;18.30;99.90
21559;DHT22;10940;48.890;8.240;2023-09-19T08:12:14;18.30;99.90
21559;DHT22;10940;48.890;8.240;2023-09-19T08:14:40;18.30;99.90
21559;DHT22;10940;48.890;8.240;2023-09-19T08:17:08;18.40;99.90
21559;DHT22;10940;48.890;8.240;2023-09-19T08:19:34;18.50;99.90
21559;DHT22;10940;48.890;8.240;2023-09-19T08:22:00;18.60;99.90
21559;DHT22;10940;48.890;8.240;2023-09-19T08:24:27;18.70;99.90
21559;DHT22;10940;48.890;8.240;2023-09-19T08:26:54;18.70;99.90
21559;DHT22;10940;48.890;8.240;2023-09-19T08:29:20;18.80;99.90
21559;DHT22;10940;48.890;8.240;2023-09-19T08:31:46;18.90;99.90
21559;DHT22;10940;48.890;8.240;2023-09-19T08:34:15;19.00;99.90
21559;DHT22;10940;48.890;8.240;2023-09-19T08:36:41;19.10;99.90
21559;DHT22;10940;48.890;8.240;2023-09-19T08:39:08;19.20;99.90
21559;DHT22;10940;48.890;8.240;2023-09-19T08:41:34;19.20;99.90
21559;DHT22;10940;48.890;8.240;2023-09-19T08:44:00;19.30;99.90
21559;DHT22;10940;48.890;8.240;2023-09-19T08:46:30;19.50;99.90
21559;DHT22;10940;48.890;8.240;2023-09-19T08:49:13;19.60;99.90
21559;DHT22;10940;48.890;8.240;2023-09-19T08:51:44;19.60;99.90
21559;DHT22;10940;48.890;8.240;2023-09-19T08:54:21;19.60;99.90
21559;DHT22;10940;48.890;8.240;2023-09-19T08:56:50;19.60;99.90
21559;DHT22;10940;48.890;8.240;2023-09-19T08:59:16;19.60;99.90
21559;DHT22;10940;48.890;8.240;2023-09-19T09:01:49;19.60;99.90
21559;DHT22;10940;48.890;8.240;2023-09-19T09:04:18;19.60;99.90
21559;DHT22;10940;48.890;8.240;2023-09-19T09:06:46;19.50;99.90
21559;DHT22;10940;48.890;8.240;2023-09-19T09:09:17;19.40;99.90
21559;DHT22;10940;48.890;8.240;2023-09-19T09:11:42;19.30;99.90
21559;DHT22;10940;48.890;8.240;2023-09-19T09:14:08;19.20;99.90
21559;DHT22;10940;48.890;8.240;2023-09-19T09:16:34;19.20;99.90
21559;DHT22;10940;48.890;8.240;2023-09-19T09:19:00;19.20;99.90
21559;DHT22;10940;48.890;8.240;2023-09-19T09:21:27;19.30;99.90
21559;DHT22;10940;48.890;8.240;2023-09-19T09:23:53;19.50;99.90
21559;DHT22;10940;48.890;8.240;2023-09-19T09:26:42;19.60;99.90
21559;DHT22;10940;48.890;8.240;2023-09-19T09:29:12;19.80;99.90
21559;DHT22;10940;48.890;8.240;2023-09-19T09:31:38;20.10;99.90
21559;DHT22;10940;48.890;8.240;2023-09-19T09:34:08;20.30;99.90
21559;DHT22;10940;48.890;8.240;2023-09-19T09:36:36;20.50;99.90
21559;DHT22;10940;48.890;8.240;2023-09-19T09:39:02;20.50;99.90
21559;DHT22;10940;48.890;8.240;2023-09-19T09:41:41;20.60;99.90
21559;DHT22;10940;48.890;8.240;2023-09-19T09:44:13;20.60;99.90
21559;DHT22;10940;48.890;8.240;2023-09-19T09:46:45;20.50;99.90
21559;DHT22;10940;48.890;8.240;2023-09-19T09:49:24;20.50;99.90
21559;DHT22;10940;48.890;8.240;2023-09-19T09:54:29;20.30;99.90
21559;DHT22;10940;48.890;8.240;2023-09-19T09:57:09;20.30;99.90
21559;DHT22;10940;48.890;8.240;2023-09-19T09:59:57;20.30;99.90
21559;DHT22;10940;48.890;8.240;2023-09-19T10:02:38;20.30;99.90
21559;DHT22;10940;48.890;8.240;2023-09-19T10:05:18;20.50;99.90
21559;DHT22;10940;48.890;8.240;2023-09-19T10:07:48;20.60;99.90
21559;DHT22;10940;48.890;8.240;2023-09-19T10:10:35;20.90;99.90
21559;DHT22;10940;48.890;8.240;2023-09-19T10:13:11;21.00;99.90
21559;DHT22;10940;48.890;8.240;2023-09-19T10:15:39;21.00;99.90
21559;DHT22;10940;48.890;8.240;2023-09-19T10:18:10;21.00;99.90
21559;DHT22;10940;48.890;8.240;2023-09-19T10:20:37;21.00;99.90
21559;DHT22;10940;48.890;8.240;2023-09-19T10:23:09;21.10;99.90
21559;DHT22;10940;48.890;8.240;2023-09-19T10:25:40;21.10;99.90
21559;DHT22;10940;48.890;8.240;2023-09-19T10:28:07;21.20;99.90
21559;DHT22;10940;48.890;8.240;2023-09-19T10:30:47;21.30;99.90
21559;DHT22;10940;48.890;8.240;2023-09-19T10:33:21;21.30;99.90
21559;DHT22;10940;48.890;8.240;2023-09-19T10:35:49;21.40;99.90
21559;DHT22;10940;48.890;8.240;2023-09-19T10:38:22;21.30;99.90
21559;DHT22;10940;48.890;8.240;2023-09-19T10:40:55;21.40;99.90
21559;DHT22;10940;48.890;8.240;2023-09-19T10:43:26;21.50;99.90
21559;DHT22;10940;48.890;8.240;2023-09-19T10:46:00;21.70;99.90
21559;DHT22;10940;48.890;8.240;2023-09-19T10:48:26;21.90;99.90
21559;DHT22;10940;48.890;8.240;2023-09-19T10:51:18;21.80;99.90
21559;DHT22;10940;48.890;8.240;2023-09-19T10:53:59;21.80;99.90
21559;DHT22;10940;48.890;8.240;2023-09-19T10:56:31;21.60;99.90
21559;DHT22;10940;48.890;8.240;2023-09-19T10:59:18;21.60;99.90
21559;DHT22;10940;48.890;8.240;2023-09-19T11:01:51;21.60;99.90
21559;DHT22;10940;48.890;8.240;2023-09-19T11:04:26;21.60;99.90
21559;DHT22;10940;48.890;8.240;2023-09-19T11:07:14;21.70;99.90
21559;DHT22;10940;48.890;8.240;2023-09-19T11:09:53;21.80;99.90
21559;DHT22;10940;48.890;8.240;2023-09-19T11:15:07;21.90;99.90
21559;DHT22;10940;48.890;8.240;2023-09-19T11:17:38;21.80;99.90
21559;DHT22;10940;48.890;8.240;2023-09-19T11:30:44;21.50;99.90
21559;DHT22;10940;48.890;8.240;2023-09-19T11:33:26;21.50;99.90
21559;DHT22;10940;48.890;8.240;2023-09-19T11:36:14;21.50;99.90
21559;DHT22;10940;48.890;8.240;2023-09-19T11:43:46;22.20;99.90
21559;DHT22;10940;48.890;8.240;2023-09-19T11:46:12;22.40;99.90
21559;DHT22;10940;48.890;8.240;2023-09-19T11:48:43;22.50;99.90
21559;DHT22;10940;48.890;8.240;2023-09-19T11:51:13;22.70;99.90
21559;DHT22;10940;48.890;8.240;2023-09-19T11:53:42;22.90;99.90
21559;DHT22;10940;48.890;8.240;2023-09-19T11:56:10;23.10;99.90
21559;DHT22;10940;48.890;8.240;2023-09-19T11:58:37;23.30;99.90
21559;DHT22;10940;48.890;8.240;2023-09-19T12:01:03;23.50;99.90
21559;DHT22;10940;48.890;8.240;2023-09-19T12:03:36;23.70;99.90
21559;DHT22;10940;48.890;8.240;2023-09-19T12:06:11;23.60;99.90
21559;DHT22;10940;48.890;8.240;2023-09-19T12:08:39;23.50;99.90
21559;DHT22;10940;48.890;8.240;2023-09-19T12:11:05;23.50;99.90
21559;DHT22;10940;48.890;8.240;2023-09-19T12:13:35;23.50;99.90
21559;DHT22;10940;48.890;8.240;2023-09-19T12:16:18;23.50;99.90
21559;DHT22;10940;48.890;8.240;2023-09-19T12:18:47;23.50;99.90
21559;DHT22;10940;48.890;8.240;2023-09-19T12:21:32;23.50;99.90
21559;DHT22;10940;48.890;8.240;2023-09-19T12:24:04;23.50;99.90
21559;DHT22;10940;48.890;8.240;2023-09-19T12:26:37;23.60;99.90
21559;DHT22;10940;48.890;8.240;2023-09-19T12:29:12;23.80;99.90
21559;DHT22;10940;48.890;8.240;2023-09-19T12:31:47;23.90;99.90
21559;DHT22;10940;48.890;8.240;2023-09-19T12:34:19;24.10;99.90
21559;DHT22;10940;48.890;8.240;2023-09-19T12:36:45;24.30;99.90
21559;DHT22;10940;48.890;8.240;2023-09-19T12:39:11;24.30;99.90
21559;DHT22;10940;48.890;8.240;2023-09-19T12:41:38;24.20;99.90
21559;DHT22;10940;48.890;8.240;2023-09-19T12:44:04;24.00;99.90
21559;DHT22;10940;48.890;8.240;2023-09-19T12:46:34;23.90;99.90
21559;DHT22;10940;48.890;8.240;2023-09-19T12:49:17;23.80;99.90
21559;DHT22;10940;48.890;8.240;2023-09-19T12:51:44;24.00;99.90
21559;DHT22;10940;48.890;8.240;2023-09-19T12:54:10;24.00;99.90
21559;DHT22;10940;48.890;8.240;2023-09-19T12:56:40;23.80;99.90
21559;DHT22;10940;48.890;8.240;2023-09-19T12:59:14;23.60;99.90
21559;DHT22;10940;48.890;8.240;2023-09-19T13:01:41;23.50;99.90
21559;DHT22;10940;48.890;8.240;2023-09-19T13:04:21;23.40;99.90
21559;DHT22;10940;48.890;8.240;2023-09-19T13:06:55;23.30;99.90
21559;DHT22;10940;48.890;8.240;2023-09-19T13:09:26;23.20;99.90
21559;DHT22;10940;48.890;8.240;2023-09-19T13:12:00;23.10;99.90
21559;DHT22;10940;48.890;8.240;2023-09-19T13:14:29;23.00;99.90
21559;DHT22;10940;48.890;8.240;2023-09-19T13:17:04;22.90;99.90
21559;DHT22;10940;48.890;8.240;2023-09-19T13:19:47;22.90;99.90
21559;DHT22;10940;48.890;8.240;2023-09-19T13:22:44;23.00;99.90
21559;DHT22;10940;48.890;8.240;2023-09-19T13:25:18;23.40;99.90
21559;DHT22;10940;48.890;8.240;2023-09-19T13:27:52;23.50;99.90
21559;DHT22;10940;48.890;8.240;2023-09-19T13:30:20;23.80;99.90
21559;DHT22;10940;48.890;8.240;2023-09-19T13:32:47;24.00;99.90
21559;DHT22;10940;48.890;8.240;2023-09-19T13:35:13;24.10;99.90
21559;DHT22;10940;48.890;8.240;2023-09-19T13:37:41;24.30;99.90
21559;DHT22;10940;48.890;8.240;2023-09-19T13:40:12;24.30;99.90
21559;DHT22;10940;48.890;8.240;2023-09-19T13:42:38;24.30;99.90
21559;DHT22;10940;48.890;8.240;2023-09-19T13:45:04;24.30;99.90
21559;DHT22;10940;48.890;8.240;2023-09-19T13:47:31;24.40;99.90
21559;DHT22;10940;48.890;8.240;2023-09-19T13:49:57;24.40;99.90
21559;DHT22;10940;48.890;8.240;2023-09-19T13:52:23;24.40;99.90
21559;DHT22;10940;48.890;8.240;2023-09-19T13:54:52;24.50;99.90
21559;DHT22;10940;48.890;8.240;2023-09-19T13:57:18;24.40;99.90
21559;DHT22;10940;48.890;8.240;2023-09-19T13:59:44;24.50;99.90
21559;DHT22;10940;48.890;8.240;2023-09-19T14:02:09;24.40;99.90
21559;DHT22;10940;48.890;8.240;2023-09-19T14:04:35;24.40;99.90
21559;DHT22;10940;48.890;8.240;2023-09-19T14:07:02;24.40;99.90
21559;DHT22;10940;48.890;8.240;2023-09-19T14:09:29;24.40;99.90
21559;DHT22;10940;48.890;8.240;2023-09-19T14:11:54;24.40;99.90
21559;DHT22;10940;48.890;8.240;2023-09-19T14:14:20;24.40;99.90
21559;DHT22;10940;48.890;8.240;2023-09-19T14:16:49;24.30;99.90
21559;DHT22;10940;48.890;8.240;2023-09-19T14:19:15;24.20;99.90
21559;DHT22;10940;48.890;8.240;2023-09-19T14:21:42;24.20;99.90
21559;DHT22;10940;48.890;8.240;2023-09-19T14:24:08;24.10;99.90
21559;DHT22;10940;48.890;8.240;2023-09-19T14:26:35;24.00;99.90
21559;DHT22;10940;48.890;8.240;2023-09-19T14:29:01;23.80;99.90
21559;DHT22;10940;48.890;8.240;2023-09-19T14:31:27;23.70;99.90
21559;DHT22;10940;48.890;8.240;2023-09-19T14:33:57;23.60;99.90
21559;DHT22;10940;48.890;8.240;2023-09-19T14:36:22;23.60;99.90
21559;DHT22;10940;48.890;8.240;2023-09-19T14:38:52;23.50;99.90
21559;DHT22;10940;48.890;8.240;2023-09-19T14:41:19;23.50;99.90
21559;DHT22;10940;48.890;8.240;2023-09-19T14:43:45;23.50;99.90
21559;DHT22;10940;48.890;8.240;2023-09-19T14:46:10;23.40;99.90
21559;DHT22;10940;48.890;8.240;2023-09-19T14:48:36;23.40;99.90
21559;DHT22;10940;48.890;8.240;2023-09-19T14:51:03;23.40;99.90
21559;DHT22;10940;48.890;8.240;2023-09-19T14:53:30;23.40;99.90
21559;DHT22;10940;48.890;8.240;2023-09-19T14:55:56;23.30;99.90
21559;DHT22;10940;48.890;8.240;2023-09-19T14:58:22;23.20;99.90
21559;DHT22;10940;48.890;8.240;2023-09-19T15:00:47;23.20;99.90
21559;DHT22;10940;48.890;8.240;2023-09-19T15:03:13;23.20;99.90
21559;DHT22;10940;48.890;8.240;2023-09-19T15:05:39;23.20;99.90
21559;DHT22;10940;48.890;8.240;2023-09-19T15:08:05;23.30;99.90
21559;DHT22;10940;48.890;8.240;2023-09-19T15:10:31;23.40;99.90
21559;DHT22;10940;48.890;8.240;2023-09-19T15:12:57;23.50;99.90
21559;DHT22;10940;48.890;8.240;2023-09-19T15:15:23;23.70;99.90
21559;DHT22;10940;48.890;8.240;2023-09-19T15:17:48;23.70;99.90
21559;DHT22;10940;48.890;8.240;2023-09-19T15:20:14;23.90;99.90
21559;DHT22;10940;48.890;8.240;2023-09-19T15:22:40;23.90;99.90
21559;DHT22;10940;48.890;8.240;2023-09-19T15:25:06;23.90;99.90
21559;DHT22;10940;48.890;8.240;2023-09-19T15:27:32;23.90;99.90
21559;DHT22;10940;48.890;8.240;2023-09-19T15:29:59;23.90;99.90
21559;DHT22;10940;48.890;8.240;2023-09-19T15:32:26;23.90;99.90
21559;DHT22;10940;48.890;8.240;2023-09-19T15:34:51;23.80;99.90
21559;DHT22;10940;48.890;8.240;2023-09-19T15:37:17;23.80;99.90
21559;DHT22;10940;48.890;8.240;2023-09-19T15:39:44;23.80;99.90
21559;DHT22;10940;48.890;8.240;2023-09-19T15:42:11;23.80;99.90
21559;DHT22;10940;48.890;8.240;2023-09-19T15:44:37;23.80;99.90
21559;DHT22;10940;48.890;8.240;2023-09-19T15:47:06;23.80;99.90
21559;DHT22;10940;48.890;8.240;2023-09-19T15:49:32;23.80;99.90
21559;DHT22;10940;48.890;8.240;2023-09-19T15:51:58;23.90;99.90
21559;DHT22;10940;48.890;8.240;2023-09-19T15:54:25;23.80;99.90
21559;DHT22;10940;48.890;8.240;2023-09-19T15:56:53;23.80;99.90
21559;DHT22;10940;48.890;8.240;2023-09-19T15:59:20;23.80;99.90
21559;DHT22;10940;48.890;8.240;2023-09-19T16:01:45;23.80;99.90
21559;DHT22;10940;48.890;8.240;2023-09-19T16:04:12;23.70;99.90
21559;DHT22;10940;48.890;8.240;2023-09-19T16:06:38;23.70;99.90
21559;DHT22;10940;48.890;8.240;2023-09-19T16:09:05;23.70;99.90
21559;DHT22;10940;48.890;8.240;2023-09-19T16:11:35;23.70;99.90
21559;DHT22;10940;48.890;8.240;2023-09-19T16:14:01;23.70;99.90
21559;DHT22;10940;48.890;8.240;2023-09-19T16:16:28;23.50;99.90
21559;DHT22;10940;48.890;8.240;2023-09-19T16:19:00;23.50;99.90
21559;DHT22;10940;48.890;8.240;2023-09-19T16:21:29;23.40;99.90